Tests — V7NV7 — position and weather

sailwx.info

Track history (hours):
 
Tides and Currents Weather Stations Pressure Air Temp Water Temp Dewpoint Dewpoint Depression Visibility Wind Speed Wind Dir Waves Ship Positions

Tests

Last reported at 2014-Jul-30 16:31 UTC. Time now 2014-Jul-30 17:10 UTC.
Position N 53°31' E 008°09'.

Length 37 m; draft 5.7 m.

Type: Cargo ship. MMSI: 438003028.

Date/timePositionNaut miles runAvg speedWind from/ knotsBaromVisibWave heightAir tempDewpointWater temp
2014-Jul-30 16:31N 53°31' E 008°09'0 0.0
2014-Jul-30 15:31N 53°31' E 008°09'0 0.0
2014-Jul-30 14:31N 53°31' E 008°09'0 0.0
2014-Jul-30 13:31N 53°31' E 008°09'0 0.0
2014-Jul-30 12:31N 53°31' E 008°09'0 0.0
2014-Jul-30 11:31N 53°31' E 008°09'0 0.0
2014-Jul-30 10:28N 53°31' E 008°09'0 0.0
2014-Jul-30 09:31N 53°31' E 008°09'0 0.0
2014-Jul-30 08:31N 53°31' E 008°09'0 0.0
2014-Jul-30 07:31N 53°31' E 008°09'0 0.0
2014-Jul-30 06:31N 53°31' E 008°09'0 0.0
2014-Jul-30 05:31N 53°31' E 008°09'0 0.0
2014-Jul-30 04:31N 53°31' E 008°09'0 0.0
2014-Jul-30 03:31N 53°31' E 008°09'0 0.0
2014-Jul-30 02:28N 53°31' E 008°09'0 0.0
2014-Jul-30 01:31N 53°31' E 008°09'0 0.0
2014-Jul-30 00:31N 53°31' E 008°09'0 0.0
2014-Jul-29 23:31N 53°31' E 008°09'0 0.0
2014-Jul-29 22:31N 53°31' E 008°09'0 0.0
2014-Jul-29 21:31N 53°31' E 008°09'0 0.0
2014-Jul-29 20:31N 53°31' E 008°09'0 0.0
2014-Jul-29 19:28N 53°31' E 008°09'0 0.0
2014-Jul-29 18:31N 53°31' E 008°09'0 0.0
2014-Jul-29 17:31N 53°31' E 008°09'0 0.0
2014-Jul-29 16:33N 53°31' E 008°09'0 0.0
2014-Jul-29 15:33N 53°31' E 008°09'0 0.5
2014-Jul-29 14:33N 53°32' E 008°09'6 5.6
2014-Jul-29 13:33N 53°37' E 008°09'1212.4
2014-Jul-29 12:33N 53°48' E 007°59'3 3.5
2014-Jul-29 11:33N 53°51' E 008°03'10 9.8
2014-Jul-29 10:32N 53°44' E 008°16'9 9.5
2014-Jul-29 09:33N 53°38' E 008°28'5 4.7
2014-Jul-29 08:33N 53°34' E 008°33'0 0.3
2014-Jul-29 07:33N 53°34' E 008°33'0 0.0
2014-Jul-29 06:31N 53°34' E 008°33'0 0.0
2014-Jul-29 05:31N 53°34' E 008°33'0 0.0
2014-Jul-29 04:31N 53°34' E 008°33'0 0.0
2014-Jul-29 03:31N 53°34' E 008°33'0 0.0
2014-Jul-29 02:31N 53°34' E 008°33'0 0.0
2014-Jul-29 01:31N 53°34' E 008°33'0 0.0
2014-Jul-29 00:31N 53°34' E 008°33'0 0.0
2014-Jul-28 23:31N 53°34' E 008°33'0 0.0
2014-Jul-28 22:28N 53°34' E 008°33'0 0.0
2014-Jul-28 21:31N 53°34' E 008°33'0 0.0
2014-Jul-28 20:22N 53°34' E 008°33'0 0.0
2014-Jul-28 19:31N 53°34' E 008°33'0 0.0
2014-Jul-28 18:31N 53°34' E 008°33'0 0.0
2014-Jul-28 17:31N 53°34' E 008°33'0 0.0
2014-Jul-28 16:31N 53°34' E 008°33'0 0.0
2014-Jul-28 15:28N 53°34' E 008°33'0 0.0
2014-Jul-28 14:31N 53°34' E 008°33'0 0.0
2014-Jul-28 13:31N 53°34' E 008°33'0 0.0
2014-Jul-28 12:31N 53°34' E 008°33'0 0.0
2014-Jul-28 11:31N 53°34' E 008°33'0 0.0
2014-Jul-28 10:31N 53°34' E 008°33'0 0.0
2014-Jul-28 09:28N 53°34' E 008°33'0 0.0
2014-Jul-28 08:31N 53°34' E 008°33'0 0.0
2014-Jul-28 07:31N 53°34' E 008°33'0 0.0
2014-Jul-28 06:28N 53°34' E 008°33'0 0.0
2014-Jul-28 05:31N 53°34' E 008°33'0 0.0
2014-Jul-28 04:31N 53°34' E 008°33'0 0.0
2014-Jul-28 03:31N 53°34' E 008°33'0 0.0
2014-Jul-28 02:31N 53°34' E 008°33'0 0.0
2014-Jul-28 01:31N 53°34' E 008°33'0 0.0
2014-Jul-28 00:31N 53°34' E 008°33'0 0.0
2014-Jul-27 23:31N 53°34' E 008°33'0 0.0
2014-Jul-27 22:31N 53°34' E 008°33'0 0.0
2014-Jul-27 21:28N 53°34' E 008°33'0 0.0
2014-Jul-27 20:31N 53°34' E 008°33'0 0.0
2014-Jul-27 19:31N 53°34' E 008°33'0 0.0
2014-Jul-27 18:31N 53°34' E 008°33'0 0.0
2014-Jul-27 17:31N 53°34' E 008°33'0 0.0
2014-Jul-27 16:31N 53°34' E 008°33'0 0.0
2014-Jul-27 15:31N 53°34' E 008°33'0 0.0
2014-Jul-27 14:31N 53°34' E 008°33'0 0.0
2014-Jul-27 13:25N 53°34' E 008°33'0 0.0
2014-Jul-27 12:28N 53°34' E 008°33'0 0.0
2014-Jul-27 11:31N 53°34' E 008°33'0 0.0
2014-Jul-27 10:31N 53°34' E 008°33'0 0.0
2014-Jul-27 09:31N 53°34' E 008°33'0 0.0
2014-Jul-27 08:31N 53°34' E 008°33'0 0.0
2014-Jul-27 07:31N 53°34' E 008°33'0 0.0
2014-Jul-27 06:28N 53°34' E 008°33'0 0.0
2014-Jul-27 05:31N 53°34' E 008°33'0 0.0
2014-Jul-27 04:28N 53°34' E 008°33'0 0.0
2014-Jul-27 03:31N 53°34' E 008°33'0 0.0
2014-Jul-27 02:31N 53°34' E 008°33'0 0.0
2014-Jul-27 01:28N 53°34' E 008°33'0 0.0
2014-Jul-27 00:31N 53°34' E 008°33'0 0.0
2014-Jul-26 23:31N 53°34' E 008°33'0 0.0
2014-Jul-26 22:31N 53°34' E 008°33'0 0.0
2014-Jul-26 21:28N 53°34' E 008°33'0 0.0
2014-Jul-26 20:31N 53°34' E 008°33'0 0.0
2014-Jul-26 19:31N 53°34' E 008°33'0 0.0
2014-Jul-26 18:31N 53°34' E 008°33'0 0.0
2014-Jul-26 17:31N 53°34' E 008°33'0 0.0
2014-Jul-26 16:31N 53°34' E 008°33'0 0.0
2014-Jul-26 15:31N 53°34' E 008°33'0 0.0
2014-Jul-26 14:31N 53°34' E 008°33'0 0.0
2014-Jul-26 13:28N 53°34' E 008°33'0 0.0
2014-Jul-26 12:31N 53°34' E 008°33'0 0.0
2014-Jul-26 11:31N 53°34' E 008°33'0 0.0
2014-Jul-26 10:31N 53°34' E 008°33'0 0.0
2014-Jul-26 09:31N 53°34' E 008°33'0 0.0
2014-Jul-26 08:31N 53°34' E 008°33'0 0.0
2014-Jul-26 07:31N 53°34' E 008°33'0 0.0
2014-Jul-26 06:31N 53°34' E 008°33'0 0.0
2014-Jul-26 05:31N 53°34' E 008°33'0 0.0
2014-Jul-26 04:31N 53°34' E 008°33'0 0.0
2014-Jul-26 03:31N 53°34' E 008°33'0 0.0
2014-Jul-26 02:31N 53°34' E 008°33'0 0.0
2014-Jul-26 01:31N 53°34' E 008°33'0 0.0
2014-Jul-26 00:31N 53°34' E 008°33'0 0.0
2014-Jul-25 23:31N 53°34' E 008°33'0 0.0
2014-Jul-25 22:31N 53°34' E 008°33'0 0.0
2014-Jul-25 21:31N 53°34' E 008°33'0 0.0
2014-Jul-25 20:31N 53°34' E 008°33'0 0.0
2014-Jul-25 19:31N 53°34' E 008°33'0 0.0
2014-Jul-25 18:31N 53°34' E 008°33'0 0.0
2014-Jul-25 17:31N 53°34' E 008°33'0 0.0
2014-Jul-25 16:31N 53°34' E 008°33'0 0.0
2014-Jul-25 15:31N 53°34' E 008°33'0 0.0
2014-Jul-25 14:31N 53°34' E 008°33'0 0.0
2014-Jul-25 13:31N 53°34' E 008°33'0 0.0
2014-Jul-25 12:31N 53°34' E 008°33'0 0.0
2014-Jul-25 11:31N 53°34' E 008°33'0 0.0
2014-Jul-25 10:31N 53°34' E 008°33'0 0.0
2014-Jul-25 09:31N 53°34' E 008°33'0 0.0
2014-Jul-25 08:31N 53°34' E 008°33'0 0.0
2014-Jul-25 07:28N 53°34' E 008°33'0 0.0
2014-Jul-25 06:31N 53°34' E 008°33'0 0.0
2014-Jul-25 05:31N 53°34' E 008°33'0 0.0
2014-Jul-25 04:31N 53°34' E 008°33'0 0.0
2014-Jul-25 03:31N 53°34' E 008°33'0 0.0
2014-Jul-25 02:31N 53°34' E 008°33'0 0.0
2014-Jul-25 01:28N 53°34' E 008°33'0 0.0
2014-Jul-25 00:31N 53°34' E 008°33'0 0.0
2014-Jul-24 23:31N 53°34' E 008°33'0 0.0
2014-Jul-24 22:31N 53°34' E 008°33'0 0.0
2014-Jul-24 21:31N 53°34' E 008°33'0 0.0
2014-Jul-24 20:28N 53°34' E 008°33'0 0.0
2014-Jul-24 19:31N 53°34' E 008°33'0 0.0
2014-Jul-24 18:31N 53°34' E 008°33'0 0.0
2014-Jul-24 17:31N 53°34' E 008°33'0 0.0
2014-Jul-24 16:31N 53°34' E 008°33'0 0.0
2014-Jul-24 15:31N 53°34' E 008°33'0 0.0
2014-Jul-24 14:31N 53°34' E 008°33'0 0.0
2014-Jul-24 13:28N 53°34' E 008°33'0 0.0
2014-Jul-24 11:31N 53°34' E 008°33'0 0.0
2014-Jul-24 10:31N 53°34' E 008°33'0 0.0
2014-Jul-24 09:31N 53°34' E 008°33'0 0.0
2014-Jul-24 08:31N 53°34' E 008°33'0 0.0
2014-Jul-24 07:31N 53°34' E 008°33'0 0.0
2014-Jul-24 06:31N 53°34' E 008°33'0 0.0
2014-Jul-24 05:31N 53°34' E 008°33'0 0.0
2014-Jul-24 04:28N 53°34' E 008°33'0 0.0
2014-Jul-24 03:31N 53°34' E 008°33'0 0.0
2014-Jul-24 02:31N 53°34' E 008°33'0 0.0
2014-Jul-24 01:31N 53°34' E 008°33'0 0.0
2014-Jul-24 00:31N 53°34' E 008°33'0 0.0
2014-Jul-23 23:31N 53°34' E 008°33'0 0.0
2014-Jul-23 22:31N 53°34' E 008°33'0 0.0
2014-Jul-23 21:31N 53°34' E 008°33'0 0.0
2014-Jul-23 20:31N 53°34' E 008°33'0 0.0
2014-Jul-23 19:31N 53°34' E 008°33'0 0.0
2014-Jul-23 18:31N 53°34' E 008°33'0 0.0
2014-Jul-23 17:31N 53°34' E 008°33'0 0.0
2014-Jul-23 16:31N 53°34' E 008°33'0 0.0
2014-Jul-23 15:31N 53°34' E 008°33'0 0.0
2014-Jul-23 14:31N 53°34' E 008°33'0 0.0
2014-Jul-23 13:31N 53°34' E 008°33'0 0.0
2014-Jul-23 12:31N 53°34' E 008°33'0 0.0
2014-Jul-23 08:10N 53°34' E 008°33'0 0.0
2014-Jul-23 07:31N 53°34' E 008°33'0 0.0
2014-Jul-23 06:33N 53°34' E 008°33'0 0.0
2014-Jul-23 05:33N 53°34' E 008°33'0 0.0
2014-Jul-23 04:33N 53°34' E 008°33'0 0.0
2014-Jul-23 03:33N 53°34' E 008°33'0 0.0
2014-Jul-23 02:34N 53°34' E 008°33'0 0.0
2014-Jul-23 01:33N 53°34' E 008°33'0 0.0
2014-Jul-23 00:33N 53°34' E 008°33'0 0.0
2014-Jul-22 23:33N 53°34' E 008°33'0 0.0
2014-Jul-22 22:34N 53°34' E 008°33'0 0.0
2014-Jul-22 21:33N 53°34' E 008°33'0 0.0
2014-Jul-22 20:33N 53°34' E 008°33'0 0.0
2014-Jul-22 19:33N 53°34' E 008°33'0 0.0
2014-Jul-22 18:33N 53°34' E 008°33'0 0.0
2014-Jul-22 17:34N 53°34' E 008°33'0 0.0
2014-Jul-22 16:30N 53°34' E 008°33'0 0.0
2014-Jul-22 15:34N 53°34' E 008°33'0 0.0
2014-Jul-22 14:33N 53°34' E 008°33'0 0.0
2014-Jul-22 13:34N 53°34' E 008°33'0 0.0
2014-Jul-22 12:33N 53°34' E 008°33'0 0.0
2014-Jul-22 11:34N 53°34' E 008°33'0 0.0
2014-Jul-22 10:34N 53°34' E 008°33'0 0.0
2014-Jul-22 09:33N 53°34' E 008°33'0 0.0
2014-Jul-22 08:33N 53°34' E 008°33'0 0.0
2014-Jul-22 07:33N 53°34' E 008°33'0 0.0
2014-Jul-22 06:30N 53°34' E 008°33'0 0.0
2014-Jul-22 05:30N 53°34' E 008°33'0 0.0
2014-Jul-22 04:33N 53°34' E 008°33'0 0.0
2014-Jul-22 03:33N 53°34' E 008°33'0 0.0
2014-Jul-22 02:30N 53°34' E 008°33'0 0.0
2014-Jul-22 01:33N 53°34' E 008°33'0 0.0
2014-Jul-22 00:33N 53°34' E 008°33'0 0.0
2014-Jul-21 23:31N 53°34' E 008°33'0 0.0
2014-Jul-21 22:33N 53°34' E 008°33'0 0.0
2014-Jul-21 21:33N 53°34' E 008°33'0 0.0
2014-Jul-21 20:33N 53°34' E 008°33'0 0.0
2014-Jul-21 20:15N 53°34' E 008°33'0 0.0
2014-Jul-21 19:33N 53°34' E 008°33'0 0.0
2014-Jul-20 18:32N 53°34' E 008°33'0 0.0
2014-Jul-20 17:32N 53°34' E 008°33'0 0.0
2014-Jul-20 16:32N 53°34' E 008°33'  
Track history (hours):
 
Tides and Currents Weather Stations Pressure Air Temp Water Temp Dewpoint Dewpoint Depression Visibility Wind Speed Wind Dir Waves Ship Positions

Tests

Last reported at 2014-Jul-30 16:31 UTC. Time now 2014-Jul-30 17:10 UTC.
Position N 53°31' E 008°09'.

Length 37 m; draft 5.7 m.

Type: Cargo ship. MMSI: 438003028.

Date/timePositionNaut miles runAvg speedWind from/ knotsBaromVisibWave heightAir tempDewpointWater temp
2014-Jul-30 16:31N 53°31' E 008°09'0 0.0
2014-Jul-30 15:31N 53°31' E 008°09'0 0.0
2014-Jul-30 14:31N 53°31' E 008°09'0 0.0
2014-Jul-30 13:31N 53°31' E 008°09'0 0.0
2014-Jul-30 12:31N 53°31' E 008°09'0 0.0
2014-Jul-30 11:31N 53°31' E 008°09'0 0.0
2014-Jul-30 10:28N 53°31' E 008°09'0 0.0
2014-Jul-30 09:31N 53°31' E 008°09'0 0.0
2014-Jul-30 08:31N 53°31' E 008°09'0 0.0
2014-Jul-30 07:31N 53°31' E 008°09'0 0.0
2014-Jul-30 06:31N 53°31' E 008°09'0 0.0
2014-Jul-30 05:31N 53°31' E 008°09'0 0.0
2014-Jul-30 04:31N 53°31' E 008°09'0 0.0
2014-Jul-30 03:31N 53°31' E 008°09'0 0.0
2014-Jul-30 02:28N 53°31' E 008°09'0 0.0
2014-Jul-30 01:31N 53°31' E 008°09'0 0.0
2014-Jul-30 00:31N 53°31' E 008°09'0 0.0
2014-Jul-29 23:31N 53°31' E 008°09'0 0.0
2014-Jul-29 22:31N 53°31' E 008°09'0 0.0
2014-Jul-29 21:31N 53°31' E 008°09'0 0.0
2014-Jul-29 20:31N 53°31' E 008°09'0 0.0
2014-Jul-29 19:28N 53°31' E 008°09'0 0.0
2014-Jul-29 18:31N 53°31' E 008°09'0 0.0
2014-Jul-29 17:31N 53°31' E 008°09'0 0.0
2014-Jul-29 16:33N 53°31' E 008°09'0 0.0
2014-Jul-29 15:33N 53°31' E 008°09'0 0.5
2014-Jul-29 14:33N 53°32' E 008°09'6 5.6
2014-Jul-29 13:33N 53°37' E 008°09'1212.4
2014-Jul-29 12:33N 53°48' E 007°59'3 3.5
2014-Jul-29 11:33N 53°51' E 008°03'10 9.8
2014-Jul-29 10:32N 53°44' E 008°16'9 9.5
2014-Jul-29 09:33N 53°38' E 008°28'5 4.7
2014-Jul-29 08:33N 53°34' E 008°33'0 0.3
2014-Jul-29 07:33N 53°34' E 008°33'0 0.0
2014-Jul-29 06:31N 53°34' E 008°33'0 0.0
2014-Jul-29 05:31N 53°34' E 008°33'0 0.0
2014-Jul-29 04:31N 53°34' E 008°33'0 0.0
2014-Jul-29 03:31N 53°34' E 008°33'0 0.0
2014-Jul-29 02:31N 53°34' E 008°33'0 0.0
2014-Jul-29 01:31N 53°34' E 008°33'0 0.0
2014-Jul-29 00:31N 53°34' E 008°33'0 0.0
2014-Jul-28 23:31N 53°34' E 008°33'0 0.0
2014-Jul-28 22:28N 53°34' E 008°33'0 0.0
2014-Jul-28 21:31N 53°34' E 008°33'0 0.0
2014-Jul-28 20:22N 53°34' E 008°33'0 0.0
2014-Jul-28 19:31N 53°34' E 008°33'0 0.0
2014-Jul-28 18:31N 53°34' E 008°33'0 0.0
2014-Jul-28 17:31N 53°34' E 008°33'0 0.0
2014-Jul-28 16:31N 53°34' E 008°33'0 0.0
2014-Jul-28 15:28N 53°34' E 008°33'0 0.0
2014-Jul-28 14:31N 53°34' E 008°33'0 0.0
2014-Jul-28 13:31N 53°34' E 008°33'0 0.0
2014-Jul-28 12:31N 53°34' E 008°33'0 0.0
2014-Jul-28 11:31N 53°34' E 008°33'0 0.0
2014-Jul-28 10:31N 53°34' E 008°33'0 0.0
2014-Jul-28 09:28N 53°34' E 008°33'0 0.0
2014-Jul-28 08:31N 53°34' E 008°33'0 0.0
2014-Jul-28 07:31N 53°34' E 008°33'0 0.0
2014-Jul-28 06:28N 53°34' E 008°33'0 0.0
2014-Jul-28 05:31N 53°34' E 008°33'0 0.0
2014-Jul-28 04:31N 53°34' E 008°33'0 0.0
2014-Jul-28 03:31N 53°34' E 008°33'0 0.0
2014-Jul-28 02:31N 53°34' E 008°33'0 0.0
2014-Jul-28 01:31N 53°34' E 008°33'0 0.0
2014-Jul-28 00:31N 53°34' E 008°33'0 0.0
2014-Jul-27 23:31N 53°34' E 008°33'0 0.0
2014-Jul-27 22:31N 53°34' E 008°33'0 0.0
2014-Jul-27 21:28N 53°34' E 008°33'0 0.0
2014-Jul-27 20:31N 53°34' E 008°33'0 0.0
2014-Jul-27 19:31N 53°34' E 008°33'0 0.0
2014-Jul-27 18:31N 53°34' E 008°33'0 0.0
2014-Jul-27 17:31N 53°34' E 008°33'0 0.0
2014-Jul-27 16:31N 53°34' E 008°33'0 0.0
2014-Jul-27 15:31N 53°34' E 008°33'0 0.0
2014-Jul-27 14:31N 53°34' E 008°33'0 0.0
2014-Jul-27 13:25N 53°34' E 008°33'0 0.0
2014-Jul-27 12:28N 53°34' E 008°33'0 0.0
2014-Jul-27 11:31N 53°34' E 008°33'0 0.0
2014-Jul-27 10:31N 53°34' E 008°33'0 0.0
2014-Jul-27 09:31N 53°34' E 008°33'0 0.0
2014-Jul-27 08:31N 53°34' E 008°33'0 0.0
2014-Jul-27 07:31N 53°34' E 008°33'0 0.0
2014-Jul-27 06:28N 53°34' E 008°33'0 0.0
2014-Jul-27 05:31N 53°34' E 008°33'0 0.0
2014-Jul-27 04:28N 53°34' E 008°33'0 0.0
2014-Jul-27 03:31N 53°34' E 008°33'0 0.0
2014-Jul-27 02:31N 53°34' E 008°33'0 0.0
2014-Jul-27 01:28N 53°34' E 008°33'0 0.0
2014-Jul-27 00:31N 53°34' E 008°33'0 0.0
2014-Jul-26 23:31N 53°34' E 008°33'0 0.0
2014-Jul-26 22:31N 53°34' E 008°33'0 0.0
2014-Jul-26 21:28N 53°34' E 008°33'0 0.0
2014-Jul-26 20:31N 53°34' E 008°33'0 0.0
2014-Jul-26 19:31N 53°34' E 008°33'0 0.0
2014-Jul-26 18:31N 53°34' E 008°33'0 0.0
2014-Jul-26 17:31N 53°34' E 008°33'0 0.0
2014-Jul-26 16:31N 53°34' E 008°33'0 0.0
2014-Jul-26 15:31N 53°34' E 008°33'0 0.0
2014-Jul-26 14:31N 53°34' E 008°33'0 0.0
2014-Jul-26 13:28N 53°34' E 008°33'0 0.0
2014-Jul-26 12:31N 53°34' E 008°33'0 0.0
2014-Jul-26 11:31N 53°34' E 008°33'0 0.0
2014-Jul-26 10:31N 53°34' E 008°33'0 0.0
2014-Jul-26 09:31N 53°34' E 008°33'0 0.0
2014-Jul-26 08:31N 53°34' E 008°33'0 0.0
2014-Jul-26 07:31N 53°34' E 008°33'0 0.0
2014-Jul-26 06:31N 53°34' E 008°33'0 0.0
2014-Jul-26 05:31N 53°34' E 008°33'0 0.0
2014-Jul-26 04:31N 53°34' E 008°33'0 0.0
2014-Jul-26 03:31N 53°34' E 008°33'0 0.0
2014-Jul-26 02:31N 53°34' E 008°33'0 0.0
2014-Jul-26 01:31N 53°34' E 008°33'0 0.0
2014-Jul-26 00:31N 53°34' E 008°33'0 0.0
2014-Jul-25 23:31N 53°34' E 008°33'0 0.0
2014-Jul-25 22:31N 53°34' E 008°33'0 0.0
2014-Jul-25 21:31N 53°34' E 008°33'0 0.0
2014-Jul-25 20:31N 53°34' E 008°33'0 0.0
2014-Jul-25 19:31N 53°34' E 008°33'0 0.0
2014-Jul-25 18:31N 53°34' E 008°33'0 0.0
2014-Jul-25 17:31N 53°34' E 008°33'0 0.0
2014-Jul-25 16:31N 53°34' E 008°33'0 0.0
2014-Jul-25 15:31N 53°34' E 008°33'0 0.0
2014-Jul-25 14:31N 53°34' E 008°33'0 0.0
2014-Jul-25 13:31N 53°34' E 008°33'0 0.0
2014-Jul-25 12:31N 53°34' E 008°33'0 0.0
2014-Jul-25 11:31N 53°34' E 008°33'0 0.0
2014-Jul-25 10:31N 53°34' E 008°33'0 0.0
2014-Jul-25 09:31N 53°34' E 008°33'0 0.0
2014-Jul-25 08:31N 53°34' E 008°33'0 0.0
2014-Jul-25 07:28N 53°34' E 008°33'0 0.0
2014-Jul-25 06:31N 53°34' E 008°33'0 0.0
2014-Jul-25 05:31N 53°34' E 008°33'0 0.0
2014-Jul-25 04:31N 53°34' E 008°33'0 0.0
2014-Jul-25 03:31N 53°34' E 008°33'0 0.0
2014-Jul-25 02:31N 53°34' E 008°33'0 0.0
2014-Jul-25 01:28N 53°34' E 008°33'0 0.0
2014-Jul-25 00:31N 53°34' E 008°33'0 0.0
2014-Jul-24 23:31N 53°34' E 008°33'0 0.0
2014-Jul-24 22:31N 53°34' E 008°33'0 0.0
2014-Jul-24 21:31N 53°34' E 008°33'0 0.0
2014-Jul-24 20:28N 53°34' E 008°33'0 0.0
2014-Jul-24 19:31N 53°34' E 008°33'0 0.0
2014-Jul-24 18:31N 53°34' E 008°33'0 0.0
2014-Jul-24 17:31N 53°34' E 008°33'0 0.0
2014-Jul-24 16:31N 53°34' E 008°33'0 0.0
2014-Jul-24 15:31N 53°34' E 008°33'0 0.0
2014-Jul-24 14:31N 53°34' E 008°33'0 0.0
2014-Jul-24 13:28N 53°34' E 008°33'0 0.0
2014-Jul-24 11:31N 53°34' E 008°33'0 0.0
2014-Jul-24 10:31N 53°34' E 008°33'0 0.0
2014-Jul-24 09:31N 53°34' E 008°33'0 0.0
2014-Jul-24 08:31N 53°34' E 008°33'0 0.0
2014-Jul-24 07:31N 53°34' E 008°33'0 0.0
2014-Jul-24 06:31N 53°34' E 008°33'0 0.0
2014-Jul-24 05:31N 53°34' E 008°33'0 0.0
2014-Jul-24 04:28N 53°34' E 008°33'0 0.0
2014-Jul-24 03:31N 53°34' E 008°33'0 0.0
2014-Jul-24 02:31N 53°34' E 008°33'0 0.0
2014-Jul-24 01:31N 53°34' E 008°33'0 0.0
2014-Jul-24 00:31N 53°34' E 008°33'0 0.0
2014-Jul-23 23:31N 53°34' E 008°33'0 0.0
2014-Jul-23 22:31N 53°34' E 008°33'0 0.0
2014-Jul-23 21:31N 53°34' E 008°33'0 0.0
2014-Jul-23 20:31N 53°34' E 008°33'0 0.0
2014-Jul-23 19:31N 53°34' E 008°33'0 0.0
2014-Jul-23 18:31N 53°34' E 008°33'0 0.0
2014-Jul-23 17:31N 53°34' E 008°33'0 0.0
2014-Jul-23 16:31N 53°34' E 008°33'0 0.0
2014-Jul-23 15:31N 53°34' E 008°33'0 0.0
2014-Jul-23 14:31N 53°34' E 008°33'0 0.0
2014-Jul-23 13:31N 53°34' E 008°33'0 0.0
2014-Jul-23 12:31N 53°34' E 008°33'0 0.0
2014-Jul-23 08:10N 53°34' E 008°33'0 0.0
2014-Jul-23 07:31N 53°34' E 008°33'0 0.0
2014-Jul-23 06:33N 53°34' E 008°33'0 0.0
2014-Jul-23 05:33N 53°34' E 008°33'0 0.0
2014-Jul-23 04:33N 53°34' E 008°33'0 0.0
2014-Jul-23 03:33N 53°34' E 008°33'0 0.0
2014-Jul-23 02:34N 53°34' E 008°33'0 0.0
2014-Jul-23 01:33N 53°34' E 008°33'0 0.0
2014-Jul-23 00:33N 53°34' E 008°33'0 0.0
2014-Jul-22 23:33N 53°34' E 008°33'0 0.0
2014-Jul-22 22:34N 53°34' E 008°33'0 0.0
2014-Jul-22 21:33N 53°34' E 008°33'0 0.0
2014-Jul-22 20:33N 53°34' E 008°33'0 0.0
2014-Jul-22 19:33N 53°34' E 008°33'0 0.0
2014-Jul-22 18:33N 53°34' E 008°33'0 0.0
2014-Jul-22 17:34N 53°34' E 008°33'0 0.0
2014-Jul-22 16:30N 53°34' E 008°33'0 0.0
2014-Jul-22 15:34N 53°34' E 008°33'0 0.0
2014-Jul-22 14:33N 53°34' E 008°33'0 0.0
2014-Jul-22 13:34N 53°34' E 008°33'0 0.0
2014-Jul-22 12:33N 53°34' E 008°33'0 0.0
2014-Jul-22 11:34N 53°34' E 008°33'0 0.0
2014-Jul-22 10:34N 53°34' E 008°33'0 0.0
2014-Jul-22 09:33N 53°34' E 008°33'0 0.0
2014-Jul-22 08:33N 53°34' E 008°33'0 0.0
2014-Jul-22 07:33N 53°34' E 008°33'0 0.0
2014-Jul-22 06:30N 53°34' E 008°33'0 0.0
2014-Jul-22 05:30N 53°34' E 008°33'0 0.0
2014-Jul-22 04:33N 53°34' E 008°33'0 0.0
2014-Jul-22 03:33N 53°34' E 008°33'0 0.0
2014-Jul-22 02:30N 53°34' E 008°33'0 0.0
2014-Jul-22 01:33N 53°34' E 008°33'0 0.0
2014-Jul-22 00:33N 53°34' E 008°33'0 0.0
2014-Jul-21 23:31N 53°34' E 008°33'0 0.0
2014-Jul-21 22:33N 53°34' E 008°33'0 0.0
2014-Jul-21 21:33N 53°34' E 008°33'0 0.0
2014-Jul-21 20:33N 53°34' E 008°33'0 0.0
2014-Jul-21 20:15N 53°34' E 008°33'0 0.0
2014-Jul-21 19:33N 53°34' E 008°33'0 0.0
2014-Jul-20 18:32N 53°34' E 008°33'0 0.0
2014-Jul-20 17:32N 53°34' E 008°33'0 0.0
2014-Jul-20 16:32N 53°34' E 008°33'  

Dump ship's entire track history